createdAt,value
2022-10-11T00:00:44.829Z,17.35
2022-10-11T00:03:14.521Z,19.15
2022-10-11T00:05:44.042Z,13.55
2022-10-11T00:08:13.500Z,15.32
2022-10-11T00:10:41.606Z,14.98
2022-10-11T00:13:09.413Z,13.95
2022-10-11T00:15:39.312Z,13.77
2022-10-11T00:18:07.582Z,13.93
2022-10-11T00:20:35.373Z,14.07
2022-10-11T00:23:03.117Z,11.13
2022-10-11T00:25:30.874Z,14.80
2022-10-11T00:27:58.566Z,11.77
2022-10-11T00:30:26.406Z,17.80
2022-10-11T00:32:54.215Z,15.68
2022-10-11T00:35:22.073Z,16.50
2022-10-11T00:37:49.946Z,14.60
2022-10-11T00:40:20.450Z,16.33
2022-10-11T00:42:48.342Z,11.60
2022-10-11T00:45:57.343Z,12.05
2022-10-11T00:48:37.878Z,15.02
2022-10-11T00:51:28.551Z,15.27
2022-10-11T00:53:56.462Z,17.52
2022-10-11T00:56:28.631Z,13.63
2022-10-11T00:58:57.990Z,11.48
2022-10-11T01:01:26.252Z,16.73
2022-10-11T01:03:54.687Z,11.80
2022-10-11T01:06:22.643Z,11.18
2022-10-11T01:08:52.081Z,19.20
2022-10-11T01:11:23.920Z,14.68
2022-10-11T01:14:00.693Z,22.45
2022-10-11T01:17:02.649Z,13.98
2022-10-11T01:19:59.203Z,17.08
2022-10-11T01:23:01.009Z,23.92
2022-10-11T01:26:07.627Z,15.40
2022-10-11T01:28:48.850Z,14.57
2022-10-11T01:31:28.611Z,18.27
2022-10-11T01:34:11.591Z,16.70
2022-10-11T01:36:51.351Z,13.30
2022-10-11T01:39:31.081Z,15.68
2022-10-11T01:42:02.347Z,16.48
2022-10-11T01:44:31.913Z,9.15
2022-10-11T01:46:59.676Z,9.98
2022-10-11T01:49:27.440Z,17.67
2022-10-11T01:51:58.118Z,10.65
2022-10-11T01:55:08.104Z,14.45
2022-10-11T01:57:52.942Z,12.65
2022-10-11T02:00:28.047Z,21.40
2022-10-11T02:03:29.127Z,12.98
2022-10-11T02:06:12.331Z,16.48
2022-10-11T02:09:08.229Z,20.15
2022-10-11T02:11:37.752Z,19.42
2022-10-11T02:14:32.588Z,21.40
2022-10-11T02:17:08.763Z,20.00
2022-10-11T02:19:41.589Z,14.70
2022-10-11T02:22:19.288Z,24.83
2022-10-11T02:24:51.703Z,10.27
2022-10-11T02:27:23.553Z,16.90
2022-10-11T02:29:53.443Z,19.55
2022-10-11T02:32:23.380Z,15.27
2022-10-11T02:34:57.575Z,22.58
2022-10-11T02:37:28.205Z,23.17
2022-10-11T02:40:08.547Z,17.92
2022-10-11T02:42:59.566Z,12.40
2022-10-11T02:45:33.117Z,16.50
2022-10-11T02:48:01.468Z,12.50
2022-10-11T02:50:29.461Z,15.35
2022-10-11T02:52:57.226Z,17.05
2022-10-11T02:55:25.355Z,16.15
2022-10-11T02:57:53.188Z,10.73
2022-10-11T03:00:21.084Z,16.60
2022-10-11T03:02:48.846Z,18.42
2022-10-11T03:05:16.685Z,16.90
2022-10-11T03:07:44.520Z,11.60
2022-10-11T03:10:12.445Z,9.50
2022-10-11T03:12:40.438Z,16.38
2022-10-11T03:15:08.555Z,18.55
2022-10-11T03:17:37.276Z,18.70
2022-10-11T03:20:06.542Z,19.20
2022-10-11T03:22:34.566Z,16.88
2022-10-11T03:25:04.452Z,15.68
2022-10-11T03:27:33.372Z,15.50
2022-10-11T03:30:01.544Z,13.82
2022-10-11T03:32:29.815Z,16.67
2022-10-11T03:34:57.740Z,21.42
2022-10-11T03:37:25.559Z,17.17
2022-10-11T03:39:53.328Z,9.30
2022-10-11T03:42:21.294Z,13.35
2022-10-11T03:44:51.721Z,13.25
2022-10-11T03:47:19.990Z,18.30
2022-10-11T03:49:47.857Z,14.93
2022-10-11T03:52:15.919Z,12.98
2022-10-11T03:54:43.667Z,14.60
2022-10-11T03:57:11.530Z,14.77
2022-10-11T03:59:39.298Z,12.90
2022-10-11T04:02:07.104Z,10.95
2022-10-11T04:04:35.286Z,14.82
2022-10-11T04:07:03.237Z,15.32
2022-10-11T04:09:31.174Z,11.75
2022-10-11T04:11:59.247Z,13.95
2022-10-11T04:14:27.499Z,9.57
2022-10-11T04:16:58.396Z,14.32
2022-10-11T04:19:28.338Z,15.15
2022-10-11T04:21:56.102Z,13.15
2022-10-11T04:24:23.883Z,14.18
2022-10-11T04:26:51.632Z,13.48
2022-10-11T04:29:19.411Z,17.80
2022-10-11T04:31:47.327Z,8.98
2022-10-11T04:34:15.283Z,13.25
2022-10-11T04:36:47.549Z,22.50
2022-10-11T04:39:17.594Z,15.68
2022-10-11T04:41:46.875Z,13.85
2022-10-11T04:44:14.701Z,11.35
2022-10-11T04:46:42.607Z,11.70
2022-10-11T04:49:10.474Z,14.93
2022-10-11T04:51:38.250Z,16.13
2022-10-11T04:54:06.061Z,15.35
2022-10-11T04:56:33.982Z,15.65
2022-10-11T04:59:01.770Z,12.38
2022-10-11T05:01:29.603Z,12.48
2022-10-11T05:03:57.364Z,10.93
2022-10-11T05:06:25.136Z,13.77
2022-10-11T05:08:52.949Z,13.70
2022-10-11T05:11:21.023Z,12.38
2022-10-11T05:13:49.056Z,15.13
2022-10-11T05:16:17.518Z,13.77
2022-10-11T05:18:45.879Z,12.82
2022-10-11T05:21:28.245Z,19.80
2022-10-11T05:23:57.339Z,14.18
2022-10-11T05:26:29.250Z,14.20
2022-10-11T05:28:57.399Z,18.27
2022-10-11T05:31:25.552Z,14.77
2022-10-11T05:33:53.388Z,10.35
2022-10-11T05:36:21.476Z,14.85
2022-10-11T05:38:49.266Z,7.18
2022-10-11T05:41:17.847Z,12.38
2022-10-11T05:43:46.598Z,14.40
2022-10-11T05:46:14.845Z,13.95
2022-10-11T05:48:42.859Z,15.48
2022-10-11T05:51:12.281Z,10.80
2022-10-11T05:53:40.419Z,12.38
2022-10-11T05:56:19.653Z,14.00
2022-10-11T05:58:47.759Z,11.63
2022-10-11T06:01:24.467Z,11.93
2022-10-11T06:03:52.689Z,13.05
2022-10-11T06:06:20.835Z,14.15
2022-10-11T06:08:49.043Z,12.57
2022-10-11T06:11:22.709Z,11.43
2022-10-11T06:13:50.524Z,16.52
2022-10-11T06:16:18.350Z,13.48
2022-10-11T06:18:46.313Z,9.18
2022-10-11T06:21:15.402Z,12.65
2022-10-11T06:23:43.146Z,12.80
2022-10-11T06:26:11.847Z,15.25
2022-10-11T06:28:39.755Z,9.15
2022-10-11T06:31:07.710Z,11.23
2022-10-11T06:33:35.907Z,13.90
2022-10-11T06:36:13.242Z,17.05
2022-10-11T06:38:44.952Z,12.68
2022-10-11T06:41:22.842Z,9.05
2022-10-11T06:43:50.758Z,12.95
2022-10-11T06:46:20.987Z,11.38
2022-10-11T06:48:49.733Z,12.40
2022-10-11T06:51:20.209Z,8.45
2022-10-11T06:53:52.743Z,14.60
2022-10-11T06:56:20.543Z,12.10
2022-10-11T06:58:48.508Z,10.65
2022-10-11T07:01:19.134Z,12.98
2022-10-11T07:03:47.608Z,9.00
2022-10-11T07:06:20.605Z,10.02
2022-10-11T07:08:48.893Z,10.05
2022-10-11T07:11:19.875Z,10.18
2022-10-11T07:14:02.440Z,10.50
2022-10-11T07:16:30.337Z,8.82
2022-10-11T07:19:01.242Z,9.95
2022-10-11T07:21:30.646Z,8.38
2022-10-11T07:23:58.737Z,11.10
2022-10-11T07:26:27.276Z,8.52
2022-10-11T07:28:56.676Z,11.40
2022-10-11T07:31:26.503Z,8.13
2022-10-11T07:33:54.777Z,7.30
2022-10-11T07:36:23.295Z,6.80
2022-10-11T07:38:51.510Z,10.48
2022-10-11T07:41:19.687Z,12.50
2022-10-11T07:43:49.598Z,13.30
2022-10-11T07:46:18.696Z,12.57
2022-10-11T07:48:46.762Z,12.55
2022-10-11T07:51:18.473Z,7.20
2022-10-11T07:53:49.295Z,7.80
2022-10-11T07:56:19.928Z,5.60
2022-10-11T07:58:52.771Z,5.95
2022-10-11T08:01:21.288Z,12.95
2022-10-11T08:03:50.095Z,11.15
2022-10-11T08:06:21.384Z,14.38
2022-10-11T08:08:49.762Z,10.80
2022-10-11T08:11:21.703Z,10.48
2022-10-11T08:13:49.836Z,9.80
2022-10-11T08:16:18.176Z,11.70
2022-10-11T08:18:46.093Z,11.70
2022-10-11T08:21:16.139Z,8.73
2022-10-11T08:23:44.048Z,12.38
2022-10-11T08:26:12.433Z,10.75
2022-10-11T08:28:40.675Z,12.65
2022-10-11T08:31:10.861Z,12.65
2022-10-11T08:33:39.677Z,11.05
2022-10-11T08:36:10.583Z,10.27
2022-10-11T08:38:41.585Z,9.93
2022-10-11T08:41:39.717Z,9.77
2022-10-11T08:44:16.557Z,8.45
2022-10-11T08:46:50.311Z,9.68
2022-10-11T08:49:26.517Z,9.00
2022-10-11T08:52:04.427Z,18.08
2022-10-11T08:54:56.039Z,11.30
2022-10-11T08:57:27.590Z,10.77
2022-10-11T09:00:02.526Z,9.45
2022-10-11T09:03:06.795Z,11.48
2022-10-11T09:05:38.931Z,8.48
2022-10-11T09:08:24.191Z,7.95
2022-10-11T09:14:11.584Z,8.57
2022-10-11T09:16:42.692Z,13.10
2022-10-11T09:19:22.642Z,11.10
2022-10-11T09:22:04.212Z,12.80
2022-10-11T09:25:04.151Z,7.38
2022-10-11T09:28:03.181Z,7.68
2022-10-11T09:30:32.576Z,12.00
2022-10-11T09:33:13.306Z,10.10
2022-10-11T09:35:46.235Z,8.80
2022-10-11T09:38:41.198Z,8.60
2022-10-11T09:41:17.378Z,10.07
2022-10-11T09:43:50.913Z,10.57
2022-10-11T09:46:29.572Z,11.48
2022-10-11T09:48:59.878Z,9.38
2022-10-11T09:51:28.862Z,14.60
2022-10-11T09:54:04.086Z,11.45
2022-10-11T09:56:34.347Z,9.93
2022-10-11T09:59:28.257Z,8.55
2022-10-11T10:02:14.438Z,7.93
2022-10-11T10:05:06.712Z,10.00
2022-10-11T10:07:37.139Z,10.23
2022-10-11T10:10:43.653Z,8.18
2022-10-11T10:13:25.608Z,10.85
2022-10-11T10:15:59.461Z,10.20
2022-10-11T10:19:01.337Z,5.68
2022-10-11T10:21:47.309Z,6.82
2022-10-11T10:24:40.932Z,10.23
2022-10-11T10:27:14.686Z,8.90
2022-10-11T10:29:42.855Z,6.73
2022-10-11T10:32:23.350Z,9.55
2022-10-11T10:35:14.033Z,9.98
2022-10-11T10:37:57.103Z,8.43
2022-10-11T10:40:50.299Z,9.75
2022-10-11T10:43:23.993Z,13.20
2022-10-11T10:45:57.982Z,8.55
2022-10-11T10:49:23.551Z,11.05
2022-10-11T10:52:05.982Z,9.73
2022-10-11T10:55:21.366Z,6.15
2022-10-11T10:58:02.393Z,10.80
2022-10-11T11:00:43.563Z,7.78
2022-10-11T11:03:29.417Z,9.13
2022-10-11T11:06:20.697Z,8.05
2022-10-11T11:09:27.743Z,6.95
2022-10-11T11:12:32.679Z,11.10
2022-10-11T11:15:12.054Z,11.13
2022-10-11T11:18:22.360Z,10.20
2022-10-11T11:21:05.824Z,9.07
2022-10-11T11:23:54.258Z,9.85
2022-10-11T11:26:44.140Z,8.45
2022-10-11T11:29:33.916Z,8.07
2022-10-11T11:32:13.475Z,13.52
2022-10-11T11:34:50.672Z,12.02
2022-10-11T11:37:38.621Z,9.95
2022-10-11T11:40:18.654Z,7.78
2022-10-11T11:42:59.327Z,12.15
2022-10-11T11:45:47.339Z,10.55
2022-10-11T11:48:26.371Z,7.85
2022-10-11T11:51:32.676Z,9.70
2022-10-11T11:54:41.671Z,7.95
2022-10-11T11:57:24.401Z,11.63
2022-10-11T12:00:23.310Z,13.20
2022-10-11T12:03:00.296Z,9.63
2022-10-11T12:05:32.283Z,8.93
2022-10-11T12:08:31.772Z,10.38
2022-10-11T12:11:18.277Z,9.88
2022-10-11T12:13:47.825Z,5.70
2022-10-11T12:16:22.398Z,10.20
2022-10-11T12:19:01.870Z,8.80
2022-10-11T12:21:33.059Z,10.70
2022-10-11T12:24:12.741Z,9.85
2022-10-11T12:26:46.713Z,6.70
2022-10-11T12:29:28.414Z,10.50
2022-10-11T12:32:00.082Z,8.52
2022-10-11T12:34:37.092Z,10.45
2022-10-11T12:37:30.950Z,6.40
2022-10-11T12:39:59.962Z,8.48
2022-10-11T12:42:36.398Z,11.50
2022-10-11T12:45:13.256Z,10.05
2022-10-11T12:47:49.628Z,11.25
2022-10-11T12:50:45.142Z,8.25
2022-10-11T12:53:30.750Z,8.20
2022-10-11T12:56:12.109Z,12.18
2022-10-11T12:58:46.219Z,5.60
2022-10-11T13:01:17.514Z,6.47
2022-10-11T13:03:51.134Z,10.32
2022-10-11T13:06:26.580Z,5.80
2022-10-11T13:09:06.992Z,10.90
2022-10-11T13:11:45.345Z,7.95
2022-10-11T13:14:20.915Z,9.80
2022-10-11T13:16:57.672Z,7.63
2022-10-11T13:19:26.001Z,9.50
2022-10-11T13:21:57.033Z,10.52
2022-10-11T13:24:27.664Z,9.07
2022-10-11T13:26:57.433Z,11.05
2022-10-11T13:29:33.678Z,9.02
2022-10-11T13:32:35.551Z,10.70
2022-10-11T13:35:14.636Z,9.10
2022-10-11T13:37:46.075Z,8.85
2022-10-11T13:40:20.349Z,6.38
2022-10-11T13:42:50.201Z,12.18
2022-10-11T13:45:24.077Z,7.85
2022-10-11T13:47:54.110Z,7.80
2022-10-11T13:50:34.375Z,10.02
2022-10-11T13:53:23.270Z,7.20
2022-10-11T13:55:57.068Z,8.95
2022-10-11T13:58:36.594Z,6.13
2022-10-11T14:01:17.787Z,8.60
2022-10-11T14:03:53.942Z,10.80
2022-10-11T14:06:22.114Z,7.43
2022-10-11T14:08:55.520Z,6.78
2022-10-11T14:11:36.165Z,6.43
2022-10-11T14:14:35.292Z,7.53
2022-10-11T14:17:05.909Z,7.43
2022-10-11T14:19:33.690Z,7.75
2022-10-11T14:22:01.739Z,6.60
2022-10-11T14:24:29.803Z,8.73
2022-10-11T14:26:59.011Z,8.77
2022-10-11T14:29:33.281Z,10.55
2022-10-11T14:32:08.130Z,8.95
2022-10-11T14:34:36.648Z,9.15
2022-10-11T14:37:04.500Z,10.43
2022-10-11T14:39:33.368Z,9.75
2022-10-11T14:42:01.433Z,10.57
2022-10-11T14:44:29.504Z,8.32
2022-10-11T14:46:57.295Z,8.93
2022-10-11T14:49:28.143Z,8.30
2022-10-11T14:51:58.155Z,8.20
2022-10-11T14:54:28.890Z,6.80
2022-10-11T14:57:00.025Z,9.88
2022-10-11T14:59:34.070Z,7.70
2022-10-11T15:02:02.480Z,8.20
2022-10-11T15:04:30.397Z,9.10
2022-10-11T15:06:59.069Z,6.40
2022-10-11T15:09:29.350Z,6.95
2022-10-11T15:11:57.691Z,8.73
2022-10-11T15:14:26.222Z,9.10
2022-10-11T15:16:56.098Z,8.55
2022-10-11T15:19:25.571Z,6.63
2022-10-11T15:21:56.353Z,7.05
2022-10-11T15:24:24.244Z,8.77
2022-10-11T15:26:51.953Z,7.07
2022-10-11T15:29:21.915Z,8.27
2022-10-11T15:31:50.290Z,8.65
2022-10-11T15:34:18.071Z,8.63
2022-10-11T15:36:46.100Z,10.02
2022-10-11T15:39:31.801Z,14.00
2022-10-11T15:41:59.692Z,9.07
2022-10-11T15:44:27.556Z,10.43
2022-10-11T15:46:55.560Z,9.65
2022-10-11T15:49:23.427Z,9.63
2022-10-11T15:52:00.303Z,8.40
2022-10-11T15:54:28.280Z,9.48
2022-10-11T15:56:56.150Z,10.45
2022-10-11T15:59:23.994Z,9.75
2022-10-11T16:01:51.783Z,9.30
2022-10-11T16:04:19.611Z,9.88
2022-10-11T16:06:47.547Z,10.85
2022-10-11T16:09:15.519Z,8.27
2022-10-11T16:11:43.486Z,13.75
2022-10-11T16:14:11.730Z,10.18
2022-10-11T16:16:39.705Z,6.50
2022-10-11T16:19:07.488Z,9.73
2022-10-11T16:21:35.316Z,9.15
2022-10-11T16:24:03.218Z,11.77
2022-10-11T16:26:32.129Z,13.40
2022-10-11T16:29:00.590Z,8.73
2022-10-11T16:31:29.000Z,8.57
2022-10-11T16:33:58.808Z,9.82
2022-10-11T16:36:35.483Z,11.85
2022-10-11T16:39:16.664Z,10.50
2022-10-11T16:41:45.995Z,11.00
2022-10-11T16:44:17.121Z,13.95
2022-10-11T16:46:54.819Z,7.88
2022-10-11T16:49:26.769Z,9.82
2022-10-11T16:51:57.392Z,7.85
2022-10-11T16:54:27.625Z,9.77
2022-10-11T16:56:56.649Z,10.98
2022-10-11T16:59:26.214Z,10.02
2022-10-11T17:01:57.891Z,16.92
2022-10-11T17:04:29.021Z,14.68
2022-10-11T17:06:58.621Z,16.40
2022-10-11T17:09:28.155Z,13.98
2022-10-11T17:11:59.530Z,9.98
2022-10-11T17:14:28.590Z,14.73
2022-10-11T17:16:56.978Z,13.02
2022-10-11T17:19:25.123Z,12.75
2022-10-11T17:21:53.391Z,13.55
2022-10-11T17:24:21.863Z,13.73
2022-10-11T17:26:50.375Z,12.52
2022-10-11T17:29:18.666Z,14.73
2022-10-11T17:31:49.369Z,12.98
2022-10-11T17:34:17.952Z,11.65
2022-10-11T17:36:46.130Z,13.07
2022-10-11T17:39:17.185Z,10.88
2022-10-11T17:41:46.082Z,14.68
2022-10-11T17:44:17.491Z,13.45
2022-10-11T17:46:45.805Z,11.65
2022-10-11T17:49:14.090Z,13.05
2022-10-11T17:51:42.548Z,12.65
2022-10-11T17:54:12.938Z,12.75
2022-10-11T17:56:42.006Z,9.57
2022-10-11T17:59:17.095Z,15.45
2022-10-11T18:01:45.381Z,12.25
2022-10-11T18:04:16.815Z,12.38
2022-10-11T18:06:46.469Z,12.93
2022-10-11T18:09:18.705Z,13.15
2022-10-11T18:11:47.715Z,16.17
2022-10-11T18:14:16.297Z,19.50
2022-10-11T18:16:53.193Z,21.42
2022-10-11T18:19:21.508Z,25.63
2022-10-11T18:21:49.406Z,18.83
2022-10-11T18:24:18.117Z,14.20
2022-10-11T18:26:46.775Z,18.00
2022-10-11T18:29:14.977Z,18.20
2022-10-11T18:31:42.905Z,16.98
2022-10-11T18:34:13.842Z,21.80
2022-10-11T18:36:41.885Z,20.88
2022-10-11T18:39:13.465Z,23.98
2022-10-11T18:41:44.602Z,21.02
2022-10-11T18:44:14.911Z,25.55
2022-10-11T18:46:44.412Z,24.45
2022-10-11T18:49:13.448Z,22.95
2022-10-11T18:51:42.448Z,23.73
2022-10-11T18:54:15.334Z,22.48
2022-10-11T18:56:46.637Z,22.65
2022-10-11T18:59:14.630Z,19.52
2022-10-11T19:01:44.828Z,24.73
2022-10-11T19:04:15.887Z,25.00
2022-10-11T19:06:49.603Z,26.55
2022-10-11T19:09:24.581Z,21.65
2022-10-11T19:11:54.855Z,24.67
2022-10-11T19:14:25.926Z,29.65
2022-10-11T19:16:54.683Z,22.67
2022-10-11T19:19:30.581Z,25.50
2022-10-11T19:22:00.901Z,23.67
2022-10-11T19:24:30.276Z,21.27
2022-10-11T19:27:02.563Z,20.17
2022-10-11T19:29:32.394Z,22.45
2022-10-11T19:32:03.589Z,22.30
2022-10-11T19:34:32.829Z,21.70
2022-10-11T19:37:03.427Z,23.83
2022-10-11T19:39:31.940Z,24.40
2022-10-11T19:42:00.893Z,22.35
2022-10-11T19:44:28.967Z,19.02
2022-10-11T19:47:01.426Z,22.23
2022-10-11T19:49:32.625Z,27.40
2022-10-11T19:52:01.293Z,26.75
2022-10-11T19:54:29.528Z,31.17
2022-10-11T19:56:58.275Z,23.70
2022-10-11T19:59:28.103Z,27.85
2022-10-11T20:01:56.114Z,21.20
2022-10-11T20:04:51.167Z,25.02
2022-10-11T20:07:13.353Z,24.52
2022-10-11T20:09:41.857Z,21.63
2022-10-11T20:12:09.727Z,21.75
2022-10-11T20:14:37.686Z,25.15
2022-10-11T20:17:05.640Z,24.80
2022-10-11T20:19:33.640Z,31.38
2022-10-11T20:22:05.258Z,30.48
2022-10-11T20:24:36.751Z,28.65
2022-10-11T20:27:05.593Z,28.00
2022-10-11T20:29:33.591Z,26.02
2022-10-11T20:32:01.509Z,24.90
2022-10-11T20:34:29.499Z,31.27
2022-10-11T20:36:57.854Z,33.45
2022-10-11T20:39:26.049Z,28.90
2022-10-11T20:41:54.006Z,20.67
2022-10-11T20:44:22.136Z,25.70
2022-10-11T20:46:50.120Z,25.85
2022-10-11T20:49:20.000Z,23.15
2022-10-11T20:51:48.048Z,24.95
2022-10-11T20:54:16.359Z,28.73
2022-10-11T20:56:44.222Z,25.83
2022-10-11T20:59:12.187Z,29.52
2022-10-11T21:01:41.624Z,30.30
2022-10-11T21:04:17.244Z,26.95
2022-10-11T21:06:45.520Z,27.08
2022-10-11T21:09:16.365Z,27.20
2022-10-11T21:11:45.156Z,32.65
2022-10-11T21:14:13.455Z,28.98
2022-10-11T21:16:41.929Z,29.25
2022-10-11T21:19:14.214Z,24.92
2022-10-11T21:21:43.236Z,28.83
2022-10-11T21:24:11.938Z,27.05
2022-10-11T21:26:40.331Z,32.50
2022-10-11T21:29:08.880Z,29.77
2022-10-11T21:31:36.885Z,28.17
2022-10-11T21:34:06.642Z,31.65
2022-10-11T21:36:34.811Z,31.48
2022-10-11T21:39:02.924Z,30.98
2022-10-11T21:41:30.936Z,30.45
2022-10-11T21:44:00.687Z,26.45
2022-10-11T21:47:04.864Z,29.17
2022-10-11T21:49:19.247Z,26.98
2022-10-11T21:51:47.331Z,31.48
2022-10-11T21:54:15.429Z,41.75
2022-10-11T21:56:43.434Z,30.65
2022-10-11T21:59:12.598Z,27.55
2022-10-11T22:01:41.272Z,31.38
2022-10-11T22:04:11.379Z,32.80
2022-10-11T22:06:39.862Z,28.95
2022-10-11T22:09:08.781Z,28.92
2022-10-11T22:11:37.117Z,29.00
2022-10-11T22:14:05.661Z,32.28
2022-10-11T22:16:34.667Z,27.13
2022-10-11T22:19:04.110Z,31.63
2022-10-11T22:21:31.937Z,30.63
2022-10-11T22:23:59.944Z,26.52
2022-10-11T22:26:30.820Z,25.90
2022-10-11T22:29:00.342Z,28.50
2022-10-11T22:31:28.669Z,28.13
2022-10-11T22:33:58.604Z,26.10
2022-10-11T22:36:27.781Z,26.58
2022-10-11T22:38:56.055Z,32.38
2022-10-11T22:41:24.130Z,31.05
2022-10-11T22:43:52.220Z,29.23
2022-10-11T22:46:19.989Z,31.15
2022-10-11T22:48:47.898Z,32.30
2022-10-11T22:51:15.672Z,32.60
2022-10-11T22:53:43.642Z,24.77
2022-10-11T22:56:11.676Z,31.35
2022-10-11T22:58:39.569Z,31.25
2022-10-11T23:01:13.223Z,28.52
2022-10-11T23:03:41.159Z,32.53
2022-10-11T23:06:09.299Z,26.38
2022-10-11T23:08:37.096Z,27.65
2022-10-11T23:11:07.047Z,27.60
2022-10-11T23:13:36.085Z,26.05
2022-10-11T23:16:09.558Z,31.40
2022-10-11T23:18:38.338Z,24.77
2022-10-11T23:21:06.937Z,27.13
2022-10-11T23:23:36.468Z,25.77
2022-10-11T23:26:10.675Z,25.40
2022-10-11T23:28:38.888Z,23.55
2022-10-11T23:31:08.598Z,24.75
2022-10-11T23:33:36.682Z,22.55
2022-10-11T23:36:05.195Z,23.70
2022-10-11T23:38:33.071Z,26.73
2022-10-11T23:41:00.845Z,21.20
2022-10-11T23:43:28.681Z,23.48
2022-10-11T23:45:57.264Z,24.05
2022-10-11T23:48:25.134Z,24.33
2022-10-11T23:50:53.012Z,21.55
2022-10-11T23:53:20.923Z,17.80
2022-10-11T23:55:48.651Z,24.23
2022-10-11T23:58:16.395Z,26.88
